Time;durP1;ratioP1;P1;durP2;ratioP2;P2;SDS_P1;SDS_P2;PMS_P1;PMS_P2;Temp;Humidity;BMP_temperature;BMP_pressure;BME280_temperature;BME280_humidity;BME280_pressure;Samples;Min_cycle;Max_cycle;Signal;HPM_P1;HPM_P2
2022/01/09 00:00:21;;;;;;;;;0.00;0.00;;;;;4.14;84.00;97194.59;5092866;28;8846;-56
2022/01/09 00:02:49;;;;;;;;;0.00;0.00;;;;;4.14;84.03;97191.97;5090509;28;8983;-57
2022/01/09 00:05:17;;;;;;;;;0.00;0.00;;;;;4.13;83.64;97187.69;5090047;28;8854;-56
2022/01/09 00:07:44;;;;;;;;;0.00;0.00;;;;;4.11;84.29;97184.38;5090556;28;8928;-57
2022/01/09 00:10:12;;;;;;;;;0.00;0.00;;;;;4.10;84.11;97174.81;5074935;28;9877;-58
2022/01/09 00:12:40;;;;;;;;;0.00;0.00;;;;;4.07;84.15;97177.75;5071426;28;8840;-56
2022/01/09 00:15:08;;;;;;;;;0.00;0.00;;;;;4.07;84.31;97169.84;5071982;28;8974;-57
2022/01/09 00:17:36;;;;;;;;;0.00;0.00;;;;;4.05;83.99;97175.25;5069327;28;8875;-56
2022/01/09 00:20:03;;;;;;;;;0.00;0.00;;;;;4.05;84.11;97171.81;5071578;28;9525;-57
2022/01/09 00:22:37;;;;;;;;;0.00;0.00;;;;;4.04;84.34;97178.06;5070732;28;8844;-57
2022/01/09 00:25:05;;;;;;;;;0.00;0.00;;;;;4.03;84.42;97165.88;5070765;28;8974;-57
2022/01/09 00:27:32;;;;;;;;;0.00;0.00;;;;;4.03;84.78;97165.88;5070555;28;8982;-57
2022/01/09 00:30:00;;;;;;;;;0.00;0.00;;;;;4.02;84.52;97162.41;5072327;28;8970;-57
2022/01/09 00:32:28;;;;;;;;;0.00;0.00;;;;;4.03;84.41;97165.88;5070855;28;8860;-56
2022/01/09 00:34:56;;;;;;;;;0.00;0.00;;;;;4.03;84.34;97155.34;5069680;28;8855;-56
2022/01/09 00:37:23;;;;;;;;;0.00;0.00;;;;;4.03;84.59;97145.63;5069462;28;8864;-57
2022/01/09 00:39:51;;;;;;;;;0.00;0.00;;;;;4.04;84.48;97146.47;5083383;28;8818;-57
2022/01/09 00:42:19;;;;;;;;;0.00;0.00;;;;;4.03;84.46;97148.25;5105880;28;8844;-57
2022/01/09 00:44:47;;;;;;;;;0.00;0.00;;;;;4.04;85.05;97135.94;5112696;28;8840;-57
2022/01/09 00:47:15;;;;;;;;;0.00;0.00;;;;;4.06;84.55;97128.72;5112232;28;8839;-57
2022/01/09 00:49:43;;;;;;;;;0.00;0.00;;;;;4.10;84.60;97132.72;5112073;28;8832;-57
2022/01/09 00:52:11;;;;;;;;;0.00;0.00;;;;;4.12;84.55;97123.66;5110272;28;8842;-57
2022/01/09 00:54:39;;;;;;;;;0.00;0.00;;;;;4.16;84.85;97124.19;5111957;28;8856;-57
2022/01/09 00:57:07;;;;;;;;;0.00;0.00;;;;;4.20;84.12;97122.91;5111414;28;8832;-57
2022/01/09 00:59:35;;;;;;;;;0.00;0.00;;;;;4.21;84.13;97117.50;5110682;28;8862;-57
2022/01/09 01:02:02;;;;;;;;;0.00;0.00;;;;;4.24;84.02;97116.34;5111112;28;9048;-56
2022/01/09 01:04:30;;;;;;;;;0.00;0.00;;;;;4.25;83.88;97110.94;5112713;28;8859;-57
2022/01/09 01:06:58;;;;;;;;;0.00;0.00;;;;;4.28;84.14;97120.34;5111475;28;8962;-57
2022/01/09 01:09:30;;;;;;;;;0.00;0.00;;;;;4.28;83.96;97122.97;5097045;28;9939;-58
2022/01/09 01:11:58;;;;;;;;;0.00;0.00;;;;;4.30;84.14;97121.00;5089353;28;8846;-57
2022/01/09 01:14:27;;;;;;;;;0.00;0.00;;;;;4.31;83.70;97109.50;5091247;28;8858;-57
2022/01/09 01:16:55;;;;;;;;;0.00;0.00;;;;;4.30;84.11;97106.03;5091881;28;8960;-57
2022/01/09 01:19:23;;;;;;;;;0.00;0.00;;;;;4.31;84.21;97104.22;5090560;28;8838;-58
2022/01/09 01:21:51;;;;;;;;;0.00;0.00;;;;;4.34;84.29;97090.75;5090540;28;8842;-57
2022/01/09 01:24:20;;;;;;;;;0.00;0.00;;;;;4.32;83.97;97093.53;5090591;28;8927;-57
2022/01/09 01:26:48;;;;;;;;;0.00;0.00;;;;;4.35;84.20;97087.16;5088087;28;8974;-58
2022/01/09 01:29:16;;;;;;;;;0.00;0.00;;;;;4.39;83.82;97081.41;5088672;28;8834;-57
2022/01/09 01:31:44;;;;;;;;;0.00;0.00;;;;;4.42;83.67;97090.81;5090971;28;8841;-58
2022/01/09 01:34:12;;;;;;;;;0.00;0.00;;;;;4.46;83.71;97098.25;5089618;28;8852;-57
2022/01/09 01:36:40;;;;;;;;;0.00;0.00;;;;;4.49;83.50;97105.03;5091433;28;8842;-59
2022/01/09 01:39:08;;;;;;;;;0.00;0.00;;;;;4.50;83.42;97094.31;5097920;28;8872;-57
2022/01/09 01:41:35;;;;;;;;;0.00;0.00;;;;;4.52;83.72;97091.53;5110970;28;8897;-57
2022/01/09 01:44:03;;;;;;;;;0.00;0.00;;;;;4.53;83.51;97101.09;5109231;28;8840;-58
2022/01/09 01:46:31;;;;;;;;;0.00;0.00;;;;;4.54;83.46;97098.31;5108519;28;8855;-57
2022/01/09 01:48:59;;;;;;;;;0.00;0.00;;;;;4.55;83.65;97097.31;5109661;28;8843;-58
2022/01/09 01:51:27;;;;;;;;;0.00;0.00;;;;;4.56;83.65;97101.59;5108767;28;8874;-57
2022/01/09 01:53:56;;;;;;;;;0.00;0.00;;;;;4.57;83.20;97108.53;5109807;28;8843;-57
2022/01/09 01:56:24;;;;;;;;;0.00;0.00;;;;;4.57;83.00;97110.34;5110477;28;8950;-57
2022/01/09 01:58:51;;;;;;;;;0.00;0.00;;;;;4.54;83.61;97103.56;5109472;28;8852;-58
2022/01/09 02:01:19;;;;;;;;;0.00;0.00;;;;;4.49;83.24;97119.00;5108974;28;8971;-58
2022/01/09 02:03:47;;;;;;;;;0.00;0.00;;;;;4.43;83.50;97116.19;5108080;28;8871;-58
2022/01/09 02:06:15;;;;;;;;;0.00;0.00;;;;;4.39;83.16;97122.72;5109181;28;8848;-58
2022/01/09 02:08:43;;;;;;;;;0.00;0.00;;;;;4.36;83.92;97133.56;5101946;28;8911;-58
2022/01/09 02:11:11;;;;;;;;;0.00;0.00;;;;;4.32;83.68;97132.22;5090568;28;8842;-58
2022/01/09 02:13:41;;;;;;;;;0.00;0.00;;;;;4.29;84.18;97136.00;5089048;28;8985;-59
2022/01/09 02:16:16;;;;;;;;;0.00;0.00;;;;;4.25;83.94;97134.63;5088768;28;9000;-59
2022/01/09 02:18:44;;;;;;;;;0.00;0.00;;;;;4.24;84.35;97145.31;5087337;28;8960;-58
2022/01/09 02:21:11;;;;;;;;;0.00;0.00;;;;;4.22;84.19;97149.91;5089349;28;8957;-58
2022/01/09 02:23:41;;;;;;;;;0.00;0.00;;;;;4.20;84.18;97146.59;5086942;28;8976;-59
2022/01/09 02:26:09;;;;;;;;;0.00;0.00;;;;;4.19;84.81;97142.31;5087517;28;8854;-58
2022/01/09 02:28:37;;;;;;;;;0.00;0.00;;;;;4.18;84.59;97151.19;5088925;28;8850;-58
2022/01/09 02:31:04;;;;;;;;;0.00;0.00;;;;;4.17;84.66;97152.16;5088261;28;8838;-58
2022/01/09 02:33:32;;;;;;;;;0.00;0.00;;;;;4.16;84.69;97161.03;5089181;28;8913;-58
2022/01/09 02:36:00;;;;;;;;;0.00;0.00;;;;;4.16;84.63;97166.31;5088699;28;8979;-58
2022/01/09 02:38:28;;;;;;;;;0.00;0.00;;;;;4.15;84.70;97169.91;5091544;28;8856;-58
2022/01/09 02:40:55;;;;;;;;;0.00;0.00;;;;;4.15;84.85;97169.91;5107077;28;8915;-58
2022/01/09 02:43:23;;;;;;;;;0.00;0.00;;;;;4.15;85.00;97175.19;5110107;28;8840;-58
2022/01/09 02:46:04;;;;;;;;;0.00;0.00;;;;;4.14;84.48;97187.53;5110817;28;8828;-57
2022/01/09 02:48:35;;;;;;;;;0.00;0.00;;;;;4.15;84.68;97204.16;5109000;28;8836;-58
2022/01/09 02:51:07;;;;;;;;;0.00;0.00;;;;;4.15;85.14;97201.50;5110150;28;8832;-58
2022/01/09 02:53:37;;;;;;;;;0.00;0.00;;;;;4.13;84.84;97206.09;5109130;28;8851;-58
2022/01/09 02:56:04;;;;;;;;;0.00;0.00;;;;;4.11;84.78;97211.50;5109750;28;8952;-58
2022/01/09 02:58:32;;;;;;;;;0.00;0.00;;;;;4.09;85.19;97218.75;5108681;28;8858;-58
2022/01/09 03:01:00;;;;;;;;;0.00;0.00;;;;;4.07;84.65;97222.50;5103945;28;8852;-59
2022/01/09 03:03:27;;;;;;;;;0.00;0.00;;;;;4.04;84.92;97214.91;5101837;28;8966;-58
2022/01/09 03:05:55;;;;;;;;;0.00;0.00;;;;;4.02;84.79;97222.94;5106121;28;8851;-58
2022/01/09 03:08:23;;;;;;;;;0.00;0.00;;;;;4.00;84.82;97226.69;5092966;28;8909;-58
2022/01/09 03:10:51;;;;;;;;;0.00;0.00;;;;;3.97;85.24;97229.63;5086264;28;8834;-57
2022/01/09 03:13:18;;;;;;;;;0.00;0.00;;;;;3.94;85.15;97232.53;5087005;28;8842;-58
2022/01/09 03:15:47;;;;;;;;;0.00;0.00;;;;;3.92;84.81;97242.41;5084496;28;8834;-58
2022/01/09 03:18:14;;;;;;;;;0.00;0.00;;;;;3.90;85.02;97249.63;5085351;28;8846;-58
2022/01/09 03:20:42;;;;;;;;;0.00;0.00;;;;;3.88;85.15;97249.75;5087951;28;8884;-59
2022/01/09 03:23:10;;;;;;;;;0.00;0.00;;;;;3.87;85.55;97261.28;5087335;28;8874;-58
2022/01/09 03:25:38;;;;;;;;;0.00;0.00;;;;;3.88;85.47;97264.75;5089004;28;8996;-59
2022/01/09 03:28:05;;;;;;;;;0.00;0.00;;;;;3.86;85.02;97271.94;5088119;28;8964;-59
2022/01/09 03:30:33;;;;;;;;;0.00;0.00;;;;;3.86;85.50;97274.56;5088648;28;8834;-59
2022/01/09 03:33:01;;;;;;;;;0.00;0.00;;;;;3.84;85.18;97281.78;5088206;28;8900;-58
2022/01/09 03:35:29;;;;;;;;;0.00;0.00;;;;;3.82;85.25;97289.81;5088056;28;8838;-59
2022/01/09 03:37:56;;;;;;;;;0.00;0.00;;;;;3.80;85.27;97294.41;5093528;28;8974;-58
2022/01/09 03:40:25;;;;;;;;;0.00;0.00;;;;;3.80;85.21;97293.59;5108119;28;8843;-58
2022/01/09 03:42:53;;;;;;;;;0.00;0.00;;;;;3.78;85.39;97298.16;5108192;28;9497;-58
2022/01/09 03:45:21;;;;;;;;;0.00;0.00;;;;;3.77;85.21;97293.88;5108698;28;8886;-59
2022/01/09 03:47:48;;;;;;;;;0.00;0.00;;;;;3.77;85.14;97306.22;5108041;28;8874;-59
2022/01/09 03:50:17;;;;;;;;;0.00;0.00;;;;;3.77;85.93;97314.91;5108450;28;8840;-59
2022/01/09 03:52:48;;;;;;;;;0.00;0.00;;;;;3.76;85.58;97321.16;5108458;28;8865;-60
2022/01/09 03:55:16;;;;;;;;;0.00;0.00;;;;;3.77;85.88;97317.56;5109741;28;8836;-59
2022/01/09 03:57:43;;;;;;;;;0.00;0.00;;;;;3.78;85.31;97320.03;5109163;28;8848;-60
2022/01/09 04:00:11;;;;;;;;;0.00;0.00;;;;;3.80;85.85;97325.16;5106231;28;8862;-59
2022/01/09 04:02:39;;;;;;;;;0.00;0.00;;;;;3.82;85.83;97336.38;5111377;28;9509;-59
2022/01/09 04:05:09;;;;;;;;;0.00;0.00;;;;;3.83;85.32;97332.75;5111591;28;8844;-60
2022/01/09 04:07:37;;;;;;;;;0.00;0.00;;;;;3.83;85.72;97341.50;5110790;28;8851;-59
2022/01/09 04:10:05;;;;;;;;;0.00;0.00;;;;;3.86;85.32;97358.78;5092437;28;8842;-60
2022/01/09 04:12:35;;;;;;;;;0.00;0.00;;;;;3.89;85.16;97359.31;5092479;28;8961;-60
2022/01/09 04:15:04;;;;;;;;;0.00;0.00;;;;;3.93;85.57;97357.22;5092194;28;8858;-60
2022/01/09 04:17:42;;;;;;;;;0.00;0.00;;;;;3.98;84.98;97370.81;5091378;28;8833;-60
2022/01/09 04:20:10;;;;;;;;;0.00;0.00;;;;;4.04;85.18;97372.84;5091425;28;8841;-60
2022/01/09 04:22:38;;;;;;;;;0.00;0.00;;;;;4.10;85.25;97388.91;5090960;28;8834;-59
2022/01/09 04:25:05;;;;;;;;;0.00;0.00;;;;;4.12;85.48;97397.47;5091431;28;8854;-60
2022/01/09 04:27:33;;;;;;;;;0.00;0.00;;;;;4.16;85.01;97395.38;5092159;28;8854;-60
2022/01/09 04:30:01;;;;;;;;;0.00;0.00;;;;;4.16;85.63;97408.53;5092206;28;8869;-62
2022/01/09 04:32:29;;;;;;;;;0.00;0.00;;;;;4.18;85.72;97422.41;5092321;28;8858;-61
2022/01/09 04:34:57;;;;;;;;;0.00;0.00;;;;;4.17;85.40;97437.38;5091920;28;8846;-61
2022/01/09 04:37:25;;;;;;;;;0.00;0.00;;;;;4.15;86.24;97435.84;5091052;28;8864;-61
2022/01/09 04:39:54;;;;;;;;;0.00;0.00;;;;;4.13;85.78;97445.72;5111679;28;8885;-61
2022/01/09 04:42:27;;;;;;;;;0.00;0.00;;;;;4.11;85.76;97458.19;5111563;28;8860;-61
2022/01/09 04:44:55;;;;;;;;;0.00;0.00;;;;;4.11;86.26;97459.00;5111823;28;8839;-60
2022/01/09 04:47:23;;;;;;;;;0.00;0.00;;;;;4.13;85.83;97466.78;5112281;28;8863;-60
2022/01/09 04:49:51;;;;;;;;;0.00;0.00;;;;;4.16;85.74;97466.47;5110427;28;8875;-60
2022/01/09 04:52:23;;;;;;;;;0.00;0.00;;;;;4.20;85.91;97467.84;5111971;28;8992;-61
2022/01/09 04:54:51;;;;;;;;;0.00;0.00;;;;;4.25;85.70;97476.97;5111279;28;8855;-61
2022/01/09 04:57:18;;;;;;;;;0.00;0.00;;;;;4.29;85.59;97482.78;5112157;28;8839;-60
2022/01/09 04:59:46;;;;;;;;;0.00;0.00;;;;;4.34;85.82;97497.19;5110852;28;8855;-60
2022/01/09 05:02:14;;;;;;;;;0.00;0.00;;;;;4.38;85.42;97508.25;5111421;28;8846;-60
2022/01/09 05:04:42;;;;;;;;;0.00;0.00;;;;;4.43;85.71;97506.03;5110595;28;8848;-60
2022/01/09 05:07:10;;;;;;;;;0.00;0.00;;;;;4.47;85.57;97508.25;5109513;28;8851;-61
2022/01/09 05:09:38;;;;;;;;;0.00;0.00;;;;;4.52;85.25;97513.06;5090562;28;8854;-60
2022/01/09 05:12:10;;;;;;;;;0.00;0.00;;;;;4.55;85.46;97520.69;5090841;28;9281;-61
2022/01/09 05:14:38;;;;;;;;;0.00;0.00;;;;;4.60;85.82;97531.63;5091725;28;8856;-60
2022/01/09 05:17:07;;;;;;;;;0.20;0.20;;;;;4.64;85.30;97535.66;5090860;28;8857;-61
2022/01/09 05:19:36;;;;;;;;;0.00;0.00;;;;;4.67;85.51;97530.91;5089938;28;8833;-61
2022/01/09 05:22:05;;;;;;;;;0.00;0.00;;;;;4.71;84.87;97537.53;5090217;28;8842;-61
2022/01/09 05:24:33;;;;;;;;;0.00;0.00;;;;;4.74;85.69;97545.19;5090265;28;9854;-61
2022/01/09 05:27:01;;;;;;;;;0.40;0.00;;;;;4.78;85.18;97551.81;5090929;28;8865;-61
2022/01/09 05:29:28;;;;;;;;;0.00;0.00;;;;;4.82;85.44;97557.63;5090899;28;8853;-60
2022/01/09 05:31:56;;;;;;;;;0.00;0.00;;;;;4.85;85.00;97558.16;5089869;28;8846;-60
2022/01/09 05:34:24;;;;;;;;;0.00;0.00;;;;;4.88;85.48;97570.22;5090209;28;8868;-60
2022/01/09 05:36:52;;;;;;;;;1.00;1.00;;;;;4.91;84.98;97569.94;5089138;28;8931;-60
2022/01/09 05:39:19;;;;;;;;;1.00;1.00;;;;;4.92;85.13;97582.13;5109311;28;9566;-60
2022/01/09 05:41:47;;;;;;;;;0.00;0.00;;;;;4.94;85.42;97585.47;5109872;28;8836;-61
2022/01/09 05:44:14;;;;;;;;;0.80;0.80;;;;;4.95;85.74;97592.41;5110689;28;8855;-60
2022/01/09 05:46:42;;;;;;;;;1.00;1.00;;;;;4.97;84.93;97606.25;5110930;28;8920;-61
2022/01/09 05:49:10;;;;;;;;;0.00;0.00;;;;;4.99;85.43;97601.66;5109065;28;8855;-60
2022/01/09 05:51:38;;;;;;;;;2.40;0.00;;;;;5.01;85.64;97610.28;5098649;28;8842;-60
2022/01/09 05:54:06;;;;;;;;;0.60;0.60;;;;;5.04;85.01;97613.47;5089542;28;8864;-60
2022/01/09 05:56:34;;;;;;;;;0.20;0.20;;;;;5.09;85.29;97610.38;5090465;28;8830;-60
2022/01/09 05:59:01;;;;;;;;;0.40;0.00;;;;;5.15;85.40;97621.19;5089052;28;9480;-60
2022/01/09 06:01:29;;;;;;;;;1.00;1.00;;;;;5.22;85.42;97630.16;5090404;28;9484;-61
2022/01/09 06:03:57;;;;;;;;;1.80;1.00;;;;;5.28;85.21;97631.38;5089609;28;8846;-61
2022/01/09 06:06:24;;;;;;;;;4.00;2.20;;;;;5.33;84.96;97655.53;5089340;28;8852;-60
2022/01/09 06:08:52;;;;;;;;;1.00;1.00;;;;;5.34;85.36;97658.03;5090932;28;8988;-61
2022/01/09 06:11:20;;;;;;;;;0.00;0.00;;;;;5.35;85.46;97650.94;5090267;28;8985;-60
2022/01/09 06:13:48;;;;;;;;;4.60;2.60;;;;;5.34;85.77;97665.94;5090746;28;8838;-61
2022/01/09 06:16:16;;;;;;;;;0.00;0.00;;;;;5.31;85.62;97663.59;5091277;28;8834;-60
2022/01/09 06:18:43;;;;;;;;;0.00;0.00;;;;;5.32;86.24;97685.53;5090351;28;8838;-60
2022/01/09 06:21:11;;;;;;;;;0.00;0.00;;;;;5.30;86.29;97690.09;5096097;28;8832;-61
2022/01/09 06:23:38;;;;;;;;;0.80;0.80;;;;;5.27;86.29;97687.78;5108042;28;8935;-61
2022/01/09 06:26:06;;;;;;;;;3.00;1.00;;;;;5.23;86.27;97703.06;5110989;28;8932;-60
2022/01/09 06:28:34;;;;;;;;;0.00;0.00;;;;;5.21;86.09;97710.28;5110549;28;8836;-61
2022/01/09 06:31:02;;;;;;;;;0.40;0.00;;;;;5.19;86.50;97711.41;5111194;28;9573;-60
2022/01/09 06:33:30;;;;;;;;;0.40;0.40;;;;;5.18;86.30;97721.09;5110059;28;8835;-60
2022/01/09 06:35:58;;;;;;;;;0.20;0.20;;;;;5.17;86.66;97721.28;5109850;28;8842;-61
2022/01/09 06:38:25;;;;;;;;;1.00;0.80;;;;;5.13;86.76;97738.34;5109893;28;8994;-61
2022/01/09 06:40:53;;;;;;;;;0.40;0.20;;;;;5.10;86.67;97733.38;5111258;28;9505;-61
2022/01/09 06:43:21;;;;;;;;;0.00;0.00;;;;;5.04;86.85;97755.03;5109957;28;8852;-61
2022/01/09 06:45:49;;;;;;;;;0.00;0.00;;;;;4.97;86.65;97757.41;5110199;28;8840;-61
2022/01/09 06:48:17;;;;;;;;;0.00;0.00;;;;;4.90;86.98;97774.75;5110416;28;9676;-61
2022/01/09 06:50:44;;;;;;;;;2.40;0.60;;;;;4.85;87.22;97786.66;5107116;28;8852;-60
2022/01/09 06:53:12;;;;;;;;;0.00;0.00;;;;;4.79;87.14;97772.25;5089680;28;8868;-60
2022/01/09 06:55:41;;;;;;;;;0.00;0.00;;;;;4.74;86.86;97765.75;5089868;28;8842;-60
2022/01/09 06:58:08;;;;;;;;;1.00;0.80;;;;;4.70;86.81;97777.53;5089500;28;8852;-60
2022/01/09 07:00:36;;;;;;;;;1.00;1.00;;;;;4.69;87.29;97778.50;5089555;28;8841;-61
2022/01/09 07:03:04;;;;;;;;;2.20;1.80;;;;;4.67;87.34;97786.56;5089401;28;8846;-60
2022/01/09 07:05:32;;;;;;;;;3.40;1.80;;;;;4.66;87.14;97790.19;5088746;28;8888;-60
2022/01/09 07:08:00;;;;;;;;;0.00;0.00;;;;;4.68;87.39;97800.56;5089577;28;8974;-60
2022/01/09 07:10:27;;;;;;;;;1.00;1.00;;;;;4.69;87.34;97802.22;5089743;28;8846;-61
2022/01/09 07:12:56;;;;;;;;;0.00;0.00;;;;;4.72;87.38;97810.69;5089031;28;8984;-61
2022/01/09 07:15:23;;;;;;;;;4.60;3.40;;;;;4.76;86.84;97819.16;5088719;28;9919;-60
2022/01/09 07:17:51;;;;;;;;;2.00;1.80;;;;;4.80;86.77;97820.56;5088979;28;8856;-61
2022/01/09 07:20:19;;;;;;;;;2.20;2.20;;;;;4.85;86.87;97828.84;5088681;28;9055;-60
2022/01/09 07:22:47;;;;;;;;;2.60;0.80;;;;;4.88;87.10;97828.59;5108726;28;8832;-60
2022/01/09 07:25:15;;;;;;;;;3.00;3.00;;;;;4.91;87.16;97847.63;5109527;28;8946;-59
2022/01/09 07:27:43;;;;;;;;;1.40;1.40;;;;;4.94;86.62;97846.50;5109974;28;8862;-60
2022/01/09 07:30:10;;;;;;;;;2.20;2.20;;;;;4.95;86.94;97845.53;5109592;28;8836;-60
2022/01/09 07:32:40;;;;;;;;;3.40;3.40;;;;;4.97;86.82;97849.69;5109937;28;8831;-59
2022/01/09 07:35:08;;;;;;;;;3.80;3.40;;;;;4.99;86.80;97868.84;5109946;28;8820;-59
2022/01/09 07:37:35;;;;;;;;;1.40;1.00;;;;;5.00;87.17;97877.56;5113474;28;8871;-59
2022/01/09 07:40:03;;;;;;;;;4.00;4.00;;;;;5.02;87.08;97875.66;5112266;28;8909;-59
2022/01/09 07:42:31;;;;;;;;;1.40;1.40;;;;;5.04;86.52;97886.88;5112408;28;8945;-59
2022/01/09 07:44:59;;;;;;;;;3.40;2.60;;;;;5.05;86.98;97893.81;5112526;28;8876;-59
2022/01/09 07:47:27;;;;;;;;;3.40;3.40;;;;;5.08;86.95;97901.47;5113162;28;8955;-58
2022/01/09 07:49:55;;;;;;;;;1.40;1.40;;;;;5.11;86.52;97906.47;5110287;28;8933;-58
2022/01/09 07:52:22;;;;;;;;;4.00;3.00;;;;;5.14;86.80;97911.44;5096032;28;9272;-58
2022/01/09 07:54:50;;;;;;;;;7.80;4.00;;;;;5.15;86.40;97911.31;5091014;28;8861;-58
2022/01/09 07:57:18;;;;;;;;;4.00;3.60;;;;;5.18;86.45;97918.13;5091335;28;9492;-57
2022/01/09 07:59:46;;;;;;;;;1.00;1.00;;;;;5.18;86.08;97929.50;5092579;28;8830;-58
2022/01/09 08:02:13;;;;;;;;;6.40;6.00;;;;;5.20;86.58;97930.22;5091799;28;9161;-58
2022/01/09 08:04:41;;;;;;;;;3.80;3.00;;;;;5.22;86.24;97932.69;5091028;28;8876;-59
2022/01/09 08:07:11;;;;;;;;;3.00;3.00;;;;;5.21;86.45;97933.66;5091285;28;8838;-59
2022/01/09 08:09:39;;;;;;;;;0.80;0.80;;;;;5.21;86.10;97950.34;5089540;28;8866;-60
2022/01/09 08:12:10;;;;;;;;;4.60;4.20;;;;;5.22;86.08;97959.06;5091425;28;8946;-60
2022/01/09 08:14:38;;;;;;;;;3.00;1.80;;;;;5.21;85.93;97963.53;5090165;28;8841;-60
2022/01/09 08:17:06;;;;;;;;;3.40;3.00;;;;;5.23;86.11;97960.75;5090352;28;8846;-59
2022/01/09 08:19:35;;;;;;;;;1.00;1.00;;;;;5.22;86.24;97967.84;5089258;28;8866;-59
2022/01/09 08:22:03;;;;;;;;;4.80;1.80;;;;;5.23;86.59;97973.97;5090057;28;8852;-58
2022/01/09 08:24:31;;;;;;;;;4.80;3.00;;;;;5.23;85.99;97974.78;5089646;28;8854;-58
2022/01/09 08:26:58;;;;;;;;;3.00;3.00;;;;;5.25;85.52;97982.56;5089218;28;8972;-59
2022/01/09 08:29:26;;;;;;;;;1.80;1.80;;;;;5.26;86.28;97997.41;5090883;28;8865;-58
2022/01/09 08:31:54;;;;;;;;;1.00;1.00;;;;;5.26;86.17;97998.22;5090855;28;8870;-58
2022/01/09 08:34:22;;;;;;;;;3.00;2.60;;;;;5.26;85.82;97992.97;5089229;28;9754;-59
2022/01/09 08:36:49;;;;;;;;;3.00;3.00;;;;;5.27;85.92;98010.47;5089356;28;8907;-59
2022/01/09 08:39:17;;;;;;;;;4.00;4.00;;;;;5.27;85.94;98009.63;5090775;28;8866;-58
2022/01/09 08:41:45;;;;;;;;;3.40;3.00;;;;;5.29;85.40;98018.25;5089707;28;8866;-58
2022/01/09 08:44:12;;;;;;;;;4.00;4.00;;;;;5.29;85.58;98012.97;5088793;28;8861;-58
2022/01/09 08:46:40;;;;;;;;;8.00;5.60;;;;;5.30;85.55;98022.53;5090001;28;8841;-58
2022/01/09 08:49:08;;;;;;;;;4.20;4.20;;;;;5.31;85.59;98026.88;5089265;28;8842;-58
2022/01/09 08:51:36;;;;;;;;;3.00;3.00;;;;;5.33;85.83;98032.84;5096518;28;8844;-59
2022/01/09 08:54:03;;;;;;;;;6.80;6.80;;;;;5.33;85.63;98038.94;5109973;28;8835;-58
2022/01/09 08:56:32;;;;;;;;;0.00;0.00;;;;;5.35;85.58;98044.09;5110396;28;8970;-58
2022/01/09 08:59:01;;;;;;;;;6.80;6.00;;;;;5.35;85.49;98041.44;5111108;28;8852;-59
2022/01/09 09:01:44;;;;;;;;;1.40;0.60;;;;;5.37;85.61;98044.78;5109503;28;8848;-59
2022/01/09 09:04:12;;;;;;;;;1.80;1.20;;;;;5.37;85.69;98050.91;5110173;28;8916;-59
2022/01/09 09:06:40;;;;;;;;;4.80;1.80;;;;;5.39;85.14;98053.41;5110718;28;8943;-58
2022/01/09 09:09:08;;;;;;;;;1.00;1.00;;;;;5.40;85.34;98052.44;5109244;28;8866;-58
2022/01/09 09:11:36;;;;;;;;;1.80;1.80;;;;;5.40;85.60;98060.34;5109097;28;8852;-59
2022/01/09 09:14:03;;;;;;;;;2.60;2.60;;;;;5.40;85.36;98057.72;5107718;28;8913;-59
2022/01/09 09:16:31;;;;;;;;;3.00;3.00;;;;;5.41;85.59;98065.47;5111165;28;8840;-58
2022/01/09 09:18:59;;;;;;;;;1.40;1.40;;;;;5.41;85.55;98067.28;5107827;28;8844;-58
2022/01/09 09:21:27;;;;;;;;;3.00;3.00;;;;;5.42;85.30;98076.88;5107937;28;8929;-58
2022/01/09 09:23:54;;;;;;;;;4.00;4.00;;;;;5.43;84.98;98076.75;5108442;28;8863;-58
2022/01/09 09:26:22;;;;;;;;;9.20;7.00;;;;;5.45;85.21;98087.16;5109623;28;8986;-58
2022/01/09 09:28:50;;;;;;;;;2.20;2.20;;;;;5.45;85.31;98088.00;5108196;28;8839;-58
2022/01/09 09:31:18;;;;;;;;;3.00;3.00;;;;;5.47;84.81;98101.06;5110025;28;8847;-58
2022/01/09 09:33:46;;;;;;;;;6.00;4.80;;;;;5.49;85.15;98094.69;5109429;28;8855;-59
2022/01/09 09:36:13;;;;;;;;;6.40;6.20;;;;;5.51;85.06;98108.56;5107583;28;8848;-58
2022/01/09 09:38:41;;;;;;;;;1.00;1.00;;;;;5.53;85.25;98111.09;5109577;28;8868;-58
2022/01/09 09:41:09;;;;;;;;;3.00;1.00;;;;;5.56;84.62;98110.81;5107993;28;8948;-58
2022/01/09 09:43:36;;;;;;;;;3.60;3.60;;;;;5.57;85.41;98113.31;5110472;28;8832;-58
2022/01/09 09:46:05;;;;;;;;;3.00;1.80;;;;;5.60;84.63;98118.31;5108486;28;8920;-59
2022/01/09 09:48:32;;;;;;;;;6.60;4.00;;;;;5.64;84.54;98118.88;5108259;28;8855;-58
2022/01/09 09:51:00;;;;;;;;;3.80;3.80;;;;;5.66;84.47;98125.69;5101895;28;8846;-58
2022/01/09 09:53:27;;;;;;;;;1.80;1.00;;;;;5.67;84.50;98137.91;5087563;28;8850;-57
2022/01/09 09:55:56;;;;;;;;;1.80;0.40;;;;;5.68;84.95;98130.84;5088495;28;8862;-58
2022/01/09 09:58:23;;;;;;;;;5.60;4.80;;;;;5.69;84.50;98135.97;5089514;28;8857;-59
2022/01/09 10:00:51;;;;;;;;;3.20;3.00;;;;;5.72;84.26;98137.50;5088579;28;8844;-58
2022/01/09 10:03:19;;;;;;;;;4.00;2.20;;;;;5.73;84.39;98147.09;5087408;28;8854;-58
2022/01/09 10:05:47;;;;;;;;;5.80;5.20;;;;;5.72;84.41;98142.78;5087116;28;8838;-58
2022/01/09 10:08:15;;;;;;;;;4.00;4.00;;;;;5.73;84.49;98155.00;5086448;28;8878;-57
2022/01/09 10:10:43;;;;;;;;;2.60;1.00;;;;;5.73;84.13;98155.00;5088120;28;8865;-58
2022/01/09 10:13:11;;;;;;;;;1.00;1.00;;;;;5.72;84.24;98156.84;5086728;28;9003;-59
2022/01/09 10:15:39;;;;;;;;;0.60;0.60;;;;;5.75;84.37;98163.63;5085930;28;9725;-58
2022/01/09 10:18:08;;;;;;;;;7.40;5.60;;;;;5.74;84.04;98156.69;5085565;28;8856;-58
2022/01/09 10:20:35;;;;;;;;;5.60;5.60;;;;;5.76;83.78;98160.03;5087704;28;8877;-58
2022/01/09 10:23:03;;;;;;;;;4.60;3.20;;;;;5.77;84.19;98167.00;5106313;28;9874;-58
2022/01/09 10:25:36;;;;;;;;;4.00;3.00;;;;;5.81;84.02;98176.31;5105389;28;8920;-59
2022/01/09 10:28:04;;;;;;;;;1.00;1.00;;;;;5.84;83.78;98181.34;5105722;28;8839;-58
2022/01/09 10:30:31;;;;;;;;;1.80;1.80;;;;;5.84;83.60;98184.81;5105760;28;8832;-58
2022/01/09 10:32:59;;;;;;;;;6.20;5.60;;;;;5.87;83.88;98189.00;5105911;28;8859;-59
2022/01/09 10:35:27;;;;;;;;;3.80;3.80;;;;;5.89;84.23;98187.03;5104631;28;8874;-58
2022/01/09 10:37:55;;;;;;;;;4.00;4.00;;;;;5.91;83.62;98201.78;5101609;28;9229;-59
2022/01/09 10:40:23;;;;;;;;;3.40;3.00;;;;;5.93;83.63;98197.19;5106166;28;8852;-59
2022/01/09 10:42:50;;;;;;;;;3.00;3.00;;;;;5.96;83.42;98206.66;5106786;28;8856;-59
2022/01/09 10:45:18;;;;;;;;;4.00;1.00;;;;;5.94;83.37;98200.69;5107438;28;8866;-59
2022/01/09 10:47:48;;;;;;;;;3.80;3.20;;;;;5.92;83.45;98218.47;5106623;28;8875;-59
2022/01/09 10:50:18;;;;;;;;;3.20;3.00;;;;;5.92;83.52;98223.78;5104839;28;8945;-58
2022/01/09 10:52:45;;;;;;;;;3.20;2.60;;;;;5.92;83.40;98216.66;5086511;28;8861;-59
2022/01/09 10:55:13;;;;;;;;;2.80;1.80;;;;;5.91;83.55;98225.56;5086298;28;8860;-58
2022/01/09 10:57:42;;;;;;;;;3.00;3.00;;;;;5.88;82.99;98231.13;5087226;28;8833;-58
2022/01/09 11:00:10;;;;;;;;;4.00;3.00;;;;;5.86;83.51;98232.22;5085077;28;8907;-58
2022/01/09 11:02:38;;;;;;;;;3.80;3.80;;;;;5.85;83.84;98225.28;5083498;28;8961;-58
2022/01/09 11:05:06;;;;;;;;;7.80;7.00;;;;;5.83;83.95;98230.69;5084188;28;8930;-58
2022/01/09 11:07:33;;;;;;;;;6.60;4.00;;;;;5.86;83.39;98242.78;5085644;28;8939;-58
2022/01/09 11:10:01;;;;;;;;;4.40;4.00;;;;;5.88;83.78;98248.75;5082905;28;8840;-59
2022/01/09 11:12:35;;;;;;;;;3.60;3.20;;;;;5.89;83.44;98246.00;5087478;28;8865;-58
2022/01/09 11:15:05;;;;;;;;;2.20;1.80;;;;;5.89;83.41;98251.28;5086048;28;8848;-59
2022/01/09 11:17:33;;;;;;;;;3.00;3.00;;;;;5.89;83.45;98251.28;5087786;28;8841;-58
2022/01/09 11:20:01;;;;;;;;;3.20;3.20;;;;;5.92;83.85;98250.19;5087488;28;8857;-59
2022/01/09 11:22:29;;;;;;;;;3.00;3.00;;;;;5.94;83.45;98256.16;5108405;28;8840;-58
2022/01/09 11:24:56;;;;;;;;;4.00;3.00;;;;;5.98;83.41;98260.19;5109024;28;8844;-59
2022/01/09 11:27:25;;;;;;;;;4.60;3.80;;;;;5.97;83.08;98254.09;5108169;28;8859;-58
2022/01/09 11:29:52;;;;;;;;;1.80;1.00;;;;;5.98;83.19;98253.09;5106438;28;8920;-58
2022/01/09 11:32:20;;;;;;;;;5.60;4.80;;;;;5.99;83.33;98273.25;5106444;28;8843;-58
2022/01/09 11:34:48;;;;;;;;;4.00;4.00;;;;;6.03;82.66;98260.63;5107931;28;8874;-58
2022/01/09 11:37:16;;;;;;;;;6.00;5.20;;;;;6.08;82.37;98271.63;5107809;28;8892;-58
2022/01/09 11:39:43;;;;;;;;;1.60;0.80;;;;;6.13;82.53;98274.69;5109103;28;8850;-58
2022/01/09 11:42:12;;;;;;;;;4.20;4.20;;;;;6.15;82.90;98285.97;5109374;28;8924;-58
2022/01/09 11:44:40;;;;;;;;;3.80;2.60;;;;;6.14;82.74;98292.22;5110226;28;8828;-58
2022/01/09 11:47:08;;;;;;;;;1.00;1.00;;;;;6.14;83.02;98290.41;5108942;28;9006;-58
2022/01/09 11:49:36;;;;;;;;;6.20;5.60;;;;;6.16;83.04;98288.47;5108991;28;8863;-58
2022/01/09 11:52:03;;;;;;;;;0.20;0.20;;;;;6.22;82.65;98295.03;5096837;28;9809;-58
2022/01/09 11:54:31;;;;;;;;;4.00;4.00;;;;;6.27;82.34;98304.22;5108966;28;8862;-58